createdAt,value
2022-08-19T00:04:00.656Z,17.80
2022-08-19T00:10:32.501Z,17.70
2022-08-19T00:15:35.142Z,17.60
2022-08-19T00:20:38.117Z,17.50
2022-08-19T00:25:42.144Z,17.50
2022-08-19T00:30:45.618Z,17.40
2022-08-19T00:35:48.636Z,17.30
2022-08-19T00:41:00.247Z,17.20
2022-08-19T00:46:02.943Z,17.10
2022-08-19T00:51:06.890Z,17.10
2022-08-19T00:56:11.559Z,17.10
2022-08-19T01:01:14.224Z,17.10
2022-08-19T01:06:19.156Z,17.00
2022-08-19T01:11:24.950Z,17.00
2022-08-19T01:16:30.053Z,17.00
2022-08-19T01:21:35.888Z,17.00
2022-08-19T01:26:43.407Z,16.90
2022-08-19T01:31:46.290Z,16.90
2022-08-19T01:36:49.423Z,16.80
2022-08-19T01:41:53.602Z,16.70
2022-08-19T01:46:56.699Z,16.70
2022-08-19T01:52:01.927Z,16.60
2022-08-19T01:57:11.744Z,16.50
2022-08-19T02:02:14.172Z,16.50
2022-08-19T02:07:16.928Z,16.50
2022-08-19T02:12:20.922Z,16.30
2022-08-19T02:17:23.303Z,16.30
2022-08-19T02:22:26.792Z,16.20
2022-08-19T02:27:30.696Z,16.20
2022-08-19T02:32:33.206Z,16.20
2022-08-19T02:37:36.969Z,16.20
2022-08-19T02:42:41.042Z,16.20
2022-08-19T02:47:43.517Z,16.20
2022-08-19T02:52:46.046Z,16.20
2022-08-19T02:57:50.372Z,16.20
2022-08-19T03:02:53.017Z,16.20
2022-08-19T03:07:55.639Z,16.10
2022-08-19T03:12:59.975Z,16.10
2022-08-19T03:18:07.165Z,16.20
2022-08-19T03:23:11.909Z,16.20
2022-08-19T03:28:16.646Z,16.20
2022-08-19T03:33:28.565Z,16.20
2022-08-19T03:38:31.924Z,16.10
2022-08-19T03:43:37.515Z,16.00
2022-08-19T03:48:41.081Z,15.90
2022-08-19T03:53:43.601Z,15.90
2022-08-19T03:58:47.981Z,15.90
2022-08-19T04:03:50.983Z,15.80
2022-08-19T04:08:55.292Z,15.60
2022-08-19T04:14:00.346Z,15.50
2022-08-19T04:19:07.954Z,15.40
2022-08-19T04:24:11.064Z,15.40
2022-08-19T04:29:17.330Z,15.40
2022-08-19T04:34:22.087Z,15.40
2022-08-19T04:39:27.049Z,15.50
2022-08-19T04:44:33.083Z,15.50
2022-08-19T04:49:35.853Z,15.60
2022-08-19T04:54:39.467Z,15.60
2022-08-19T04:59:44.295Z,15.70
2022-08-19T05:04:46.926Z,15.80
2022-08-19T05:09:58.037Z,15.90
2022-08-19T05:15:09.142Z,16.00
2022-08-19T05:20:12.231Z,16.20
2022-08-19T05:25:18.474Z,16.40
2022-08-19T05:30:33.583Z,16.60
2022-08-19T05:35:45.523Z,16.70
2022-08-19T05:40:48.088Z,16.80
2022-08-19T05:45:52.476Z,16.90
2022-08-19T05:50:54.879Z,16.90
2022-08-19T05:55:57.593Z,17.20
2022-08-19T06:01:04.111Z,17.30
2022-08-19T06:06:07.295Z,17.40
2022-08-19T06:11:22.349Z,17.50
2022-08-19T06:16:26.567Z,17.90
2022-08-19T06:21:30.948Z,18.60
2022-08-19T06:26:34.445Z,19.60
2022-08-19T06:31:41.993Z,20.80
2022-08-19T06:36:47.012Z,22.00
2022-08-19T06:41:55.464Z,23.00
2022-08-19T06:47:09.405Z,23.90
2022-08-19T06:52:13.899Z,24.80
2022-08-19T06:57:16.701Z,25.70
2022-08-19T07:02:21.938Z,26.70
2022-08-19T07:07:24.960Z,27.70
2022-08-19T07:12:29.672Z,28.70
2022-08-19T07:17:34.832Z,29.60
2022-08-19T07:22:39.032Z,30.40
2022-08-19T07:27:41.513Z,30.90
2022-08-19T07:32:50.289Z,31.20
2022-08-19T07:37:53.392Z,31.20
2022-08-19T07:42:56.141Z,31.10
2022-08-19T07:48:00.480Z,30.90
2022-08-19T07:53:03.360Z,30.60
2022-08-19T07:58:06.143Z,30.30
2022-08-19T08:03:10.983Z,30.20
2022-08-19T08:08:14.139Z,30.20
2022-08-19T08:13:16.698Z,30.40
2022-08-19T08:18:20.827Z,30.60
2022-08-19T08:23:23.489Z,30.80
2022-08-19T08:28:29.610Z,31.00
2022-08-19T08:33:35.248Z,31.10
2022-08-19T08:38:40.896Z,31.40
2022-08-19T08:43:46.858Z,31.20
2022-08-19T08:48:55.334Z,31.00
2022-08-19T08:53:58.323Z,30.70
2022-08-19T08:59:05.578Z,30.60
2022-08-19T09:04:11.203Z,30.60
2022-08-19T09:09:19.980Z,30.40
2022-08-19T09:14:52.219Z,30.00
2022-08-19T09:19:58.980Z,30.00
2022-08-19T09:25:01.556Z,29.80
2022-08-19T09:30:04.524Z,29.20
2022-08-19T09:35:09.746Z,28.80
2022-08-19T09:40:13.749Z,28.80
2022-08-19T09:45:17.999Z,29.30
2022-08-19T09:50:23.171Z,29.60
2022-08-19T09:55:31.648Z,30.00
2022-08-19T10:00:35.381Z,30.40
2022-08-19T10:05:42.312Z,30.80
2022-08-19T10:10:47.040Z,31.20
2022-08-19T10:15:50.870Z,31.40
2022-08-19T10:21:05.901Z,31.40
2022-08-19T10:26:09.687Z,31.60
2022-08-19T10:31:16.167Z,32.20
2022-08-19T10:36:25.841Z,32.60
2022-08-19T10:41:31.037Z,33.00
2022-08-19T10:46:36.274Z,33.50
2022-08-19T10:51:47.798Z,34.00
2022-08-19T10:56:50.846Z,34.50
2022-08-19T11:01:53.461Z,34.90
2022-08-19T11:06:59.939Z,34.90
2022-08-19T11:12:05.024Z,34.90
2022-08-19T11:17:07.821Z,35.00
2022-08-19T11:22:11.805Z,35.60
2022-08-19T11:27:18.808Z,36.20
2022-08-19T11:32:21.547Z,36.70
2022-08-19T11:37:25.508Z,36.80
2022-08-19T11:42:28.199Z,36.70
2022-08-19T11:47:31.742Z,36.70
2022-08-19T11:52:35.702Z,36.90
2022-08-19T11:57:38.471Z,37.00
2022-08-19T12:02:41.999Z,37.20
2022-08-19T12:07:45.858Z,37.20
2022-08-19T12:12:58.499Z,37.20
2022-08-19T12:18:01.414Z,37.10
2022-08-19T12:23:09.007Z,36.90
2022-08-19T12:28:11.440Z,36.70
2022-08-19T12:33:14.031Z,36.50
2022-08-19T12:38:18.312Z,36.20
2022-08-19T12:43:20.732Z,35.90
2022-08-19T12:48:33.274Z,35.70
2022-08-19T12:53:39.385Z,35.60
2022-08-19T12:58:48.783Z,35.60
2022-08-19T13:03:53.270Z,35.50
2022-08-19T13:08:59.630Z,35.40
2022-08-19T13:14:03.134Z,34.90
2022-08-19T13:19:05.753Z,34.00
2022-08-19T13:24:09.778Z,33.50
2022-08-19T13:29:12.352Z,32.90
2022-08-19T13:34:17.201Z,32.50
2022-08-19T13:39:21.151Z,32.50
2022-08-19T13:44:26.482Z,32.50
2022-08-19T13:49:29.738Z,32.80
2022-08-19T13:54:33.793Z,32.90
2022-08-19T13:59:36.259Z,32.70
2022-08-19T14:04:38.796Z,32.50
2022-08-19T14:09:42.804Z,32.40
2022-08-19T14:14:48.795Z,32.50
2022-08-19T14:19:51.238Z,32.70
2022-08-19T14:24:55.220Z,32.80
2022-08-19T14:29:57.738Z,32.90
2022-08-19T14:35:00.354Z,33.00
2022-08-19T14:40:05.984Z,33.10
2022-08-19T14:45:10.441Z,33.10
2022-08-19T14:50:18.605Z,32.90
2022-08-19T14:55:22.828Z,32.80
2022-08-19T15:00:26.343Z,32.80
2022-08-19T15:05:28.756Z,32.90
2022-08-19T15:10:32.882Z,33.00
2022-08-19T15:15:35.493Z,33.10
2022-08-19T15:20:38.008Z,33.10
2022-08-19T15:25:42.417Z,33.10
2022-08-19T15:30:45.338Z,33.10
2022-08-19T15:35:49.027Z,33.10
2022-08-19T15:40:53.552Z,33.10
2022-08-19T15:45:55.924Z,33.00
2022-08-19T15:50:58.446Z,32.80
2022-08-19T15:56:03.120Z,32.80
2022-08-19T16:01:12.774Z,32.60
2022-08-19T16:06:15.394Z,32.40
2022-08-19T16:11:22.480Z,32.10
2022-08-19T16:16:27.978Z,31.80
2022-08-19T16:21:37.876Z,31.30
2022-08-19T16:26:45.616Z,30.70
2022-08-19T16:31:48.155Z,30.20
2022-08-19T16:36:51.120Z,29.80
2022-08-19T16:41:55.292Z,29.40
2022-08-19T16:46:59.116Z,29.10
2022-08-19T16:52:02.269Z,28.80
2022-08-19T16:57:06.728Z,28.60
2022-08-19T17:02:14.464Z,28.50
2022-08-19T17:07:16.864Z,28.50
2022-08-19T17:12:20.792Z,28.40
2022-08-19T17:17:27.028Z,28.40
2022-08-19T17:22:31.691Z,28.40
2022-08-19T17:27:36.415Z,28.40
2022-08-19T17:32:39.061Z,28.40
2022-08-19T17:37:41.551Z,28.30
2022-08-19T17:42:46.011Z,28.20
2022-08-19T17:47:48.806Z,28.20
2022-08-19T17:52:51.544Z,28.10
2022-08-19T17:57:57.516Z,28.00
2022-08-19T18:03:01.812Z,28.00
2022-08-19T18:08:04.873Z,28.00
2022-08-19T18:13:16.989Z,27.90
2022-08-19T18:18:20.051Z,27.80
2022-08-19T18:23:41.507Z,27.60
2022-08-19T18:28:49.868Z,27.50
2022-08-19T18:33:52.678Z,27.40
2022-08-19T18:38:55.220Z,27.30
2022-08-19T18:43:59.341Z,27.10
2022-08-19T18:49:01.899Z,27.00
2022-08-19T18:54:04.739Z,27.00
2022-08-19T18:59:08.739Z,26.80
2022-08-19T19:04:11.199Z,26.80
2022-08-19T19:09:16.191Z,26.60
2022-08-19T19:14:46.035Z,26.50
2022-08-19T19:19:51.119Z,26.50
2022-08-19T19:24:58.941Z,26.40
2022-08-19T19:30:09.431Z,26.20
2022-08-19T19:35:21.359Z,26.10
2022-08-19T19:40:24.483Z,26.00
2022-08-19T19:45:28.738Z,25.90
2022-08-19T19:50:31.600Z,25.70
2022-08-19T19:55:34.179Z,25.60
2022-08-19T20:00:38.273Z,25.50
2022-08-19T20:05:40.973Z,25.50
2022-08-19T20:10:44.343Z,25.50
2022-08-19T20:15:48.717Z,25.40
2022-08-19T20:20:51.910Z,25.30
2022-08-19T20:25:54.473Z,25.20
2022-08-19T20:30:58.500Z,25.10
2022-08-19T20:36:01.237Z,25.10
2022-08-19T20:41:04.061Z,25.00
2022-08-19T20:46:07.994Z,24.90
2022-08-19T20:51:12.773Z,24.90
2022-08-19T20:56:16.372Z,24.80
2022-08-19T21:01:20.678Z,24.70
2022-08-19T21:06:23.322Z,24.70
2022-08-19T21:11:25.912Z,24.60
2022-08-19T21:16:29.872Z,24.60
2022-08-19T21:21:33.040Z,24.50
2022-08-19T21:26:35.651Z,24.40
2022-08-19T21:31:39.600Z,24.40
2022-08-19T21:36:42.240Z,24.30
2022-08-19T21:41:44.732Z,24.40
2022-08-19T21:46:50.565Z,24.40
2022-08-19T21:51:53.284Z,24.30
2022-08-19T21:56:56.012Z,24.30
2022-08-19T22:02:19.223Z,24.30
2022-08-19T22:07:22.978Z,24.30
2022-08-19T22:12:28.827Z,24.30
2022-08-19T22:17:33.183Z,24.30
2022-08-19T22:22:36.495Z,24.20
2022-08-19T22:27:38.951Z,24.20
2022-08-19T22:32:47.266Z,24.20
2022-08-19T22:37:49.759Z,24.20
2022-08-19T22:42:57.980Z,24.10
2022-08-19T22:48:02.518Z,24.10
2022-08-19T22:53:07.062Z,24.10
2022-08-19T22:58:09.480Z,24.00
2022-08-19T23:03:13.708Z,24.00
2022-08-19T23:08:16.204Z,23.90
2022-08-19T23:13:19.701Z,23.80
2022-08-19T23:18:23.613Z,23.70
2022-08-19T23:23:26.308Z,23.50
2022-08-19T23:28:29.354Z,23.40
2022-08-19T23:33:50.946Z,23.20
2022-08-19T23:38:54.901Z,23.20
2022-08-19T23:43:57.305Z,23.10
2022-08-19T23:49:04.400Z,23.20
2022-08-19T23:54:06.931Z,23.20
2022-08-19T23:59:09.287Z,23.00
